sensor_id;sensor_type;location;lat;lon;timestamp;temperature;humidity
43089;DHT22;28709;52.030;5.652;2023-03-01T00:02:02;-1.20;98.70
43089;DHT22;28709;52.030;5.652;2023-03-01T00:04:28;-1.20;99.10
43089;DHT22;28709;52.030;5.652;2023-03-01T00:06:54;-1.20;99.10
43089;DHT22;28709;52.030;5.652;2023-03-01T00:09:19;-1.20;99.30
43089;DHT22;28709;52.030;5.652;2023-03-01T00:11:45;-1.20;99.40
43089;DHT22;28709;52.030;5.652;2023-03-01T00:14:11;-1.20;99.60
43089;DHT22;28709;52.030;5.652;2023-03-01T00:16:39;-1.30;99.70
43089;DHT22;28709;52.030;5.652;2023-03-01T00:19:15;-1.30;99.90
43089;DHT22;28709;52.030;5.652;2023-03-01T00:21:42;-1.30;99.90
43089;DHT22;28709;52.030;5.652;2023-03-01T00:24:08;-1.30;99.90
43089;DHT22;28709;52.030;5.652;2023-03-01T00:26:34;-1.30;99.90
43089;DHT22;28709;52.030;5.652;2023-03-01T00:29:00;-1.30;99.90
43089;DHT22;28709;52.030;5.652;2023-03-01T00:31:29;-1.40;99.90
43089;DHT22;28709;52.030;5.652;2023-03-01T00:33:56;-1.40;99.90
43089;DHT22;28709;52.030;5.652;2023-03-01T00:36:24;-1.50;99.90
43089;DHT22;28709;52.030;5.652;2023-03-01T00:38:50;-1.50;99.90
43089;DHT22;28709;52.030;5.652;2023-03-01T00:41:17;-1.50;99.90
43089;DHT22;28709;52.030;5.652;2023-03-01T00:43:44;-1.50;99.90
43089;DHT22;28709;52.030;5.652;2023-03-01T00:46:18;-1.50;99.90
43089;DHT22;28709;52.030;5.652;2023-03-01T00:48:44;-1.50;99.90
43089;DHT22;28709;52.030;5.652;2023-03-01T00:51:15;-1.50;99.90
43089;DHT22;28709;52.030;5.652;2023-03-01T00:53:41;-1.60;99.90
43089;DHT22;28709;52.030;5.652;2023-03-01T00:56:09;-1.60;99.90
43089;DHT22;28709;52.030;5.652;2023-03-01T00:58:35;-1.60;99.90
43089;DHT22;28709;52.030;5.652;2023-03-01T01:01:10;-1.60;99.90
43089;DHT22;28709;52.030;5.652;2023-03-01T01:03:46;-1.60;99.90
43089;DHT22;28709;52.030;5.652;2023-03-01T01:06:24;-1.60;99.90
43089;DHT22;28709;52.030;5.652;2023-03-01T01:08:51;-1.70;99.90
43089;DHT22;28709;52.030;5.652;2023-03-01T01:11:17;-1.70;99.90
43089;DHT22;28709;52.030;5.652;2023-03-01T01:13:45;-1.60;99.90
43089;DHT22;28709;52.030;5.652;2023-03-01T01:16:11;-1.60;99.90
43089;DHT22;28709;52.030;5.652;2023-03-01T01:18:37;-1.60;99.90
43089;DHT22;28709;52.030;5.652;2023-03-01T01:21:07;-1.70;99.90
43089;DHT22;28709;52.030;5.652;2023-03-01T01:23:33;-1.70;99.90
43089;DHT22;28709;52.030;5.652;2023-03-01T01:26:15;-1.70;99.90
43089;DHT22;28709;52.030;5.652;2023-03-01T01:28:41;-1.70;99.90
43089;DHT22;28709;52.030;5.652;2023-03-01T01:31:07;-1.70;99.90
43089;DHT22;28709;52.030;5.652;2023-03-01T01:33:33;-1.70;99.90
43089;DHT22;28709;52.030;5.652;2023-03-01T01:35:59;-1.70;99.90
43089;DHT22;28709;52.030;5.652;2023-03-01T01:38:25;-1.70;99.90
43089;DHT22;28709;52.030;5.652;2023-03-01T01:40:51;-1.70;99.90
43089;DHT22;28709;52.030;5.652;2023-03-01T01:43:35;-1.80;99.90
43089;DHT22;28709;52.030;5.652;2023-03-01T01:46:15;-1.80;99.90
43089;DHT22;28709;52.030;5.652;2023-03-01T01:48:44;-1.80;99.90
43089;DHT22;28709;52.030;5.652;2023-03-01T01:51:15;-1.80;99.90
43089;DHT22;28709;52.030;5.652;2023-03-01T01:53:45;-1.80;99.90
43089;DHT22;28709;52.030;5.652;2023-03-01T01:56:13;-1.80;99.90
43089;DHT22;28709;52.030;5.652;2023-03-01T01:58:42;-1.80;99.90
43089;DHT22;28709;52.030;5.652;2023-03-01T02:01:09;-1.80;99.90
43089;DHT22;28709;52.030;5.652;2023-03-01T02:03:37;-1.80;99.90
43089;DHT22;28709;52.030;5.652;2023-03-01T02:06:15;-1.80;99.90
43089;DHT22;28709;52.030;5.652;2023-03-01T02:08:43;-1.80;99.90
43089;DHT22;28709;52.030;5.652;2023-03-01T02:11:10;-1.80;99.90
43089;DHT22;28709;52.030;5.652;2023-03-01T02:13:40;-1.90;99.90
43089;DHT22;28709;52.030;5.652;2023-03-01T02:16:11;-1.90;99.90
43089;DHT22;28709;52.030;5.652;2023-03-01T02:18:39;-1.90;99.90
43089;DHT22;28709;52.030;5.652;2023-03-01T02:23:56;-1.90;99.90
43089;DHT22;28709;52.030;5.652;2023-03-01T02:26:42;-2.00;99.90
43089;DHT22;28709;52.030;5.652;2023-03-01T02:29:10;-2.00;99.90
43089;DHT22;28709;52.030;5.652;2023-03-01T02:31:36;-2.00;99.90
43089;DHT22;28709;52.030;5.652;2023-03-01T02:34:19;-2.00;99.90
43089;DHT22;28709;52.030;5.652;2023-03-01T02:36:49;-2.00;99.90
43089;DHT22;28709;52.030;5.652;2023-03-01T02:39:25;-2.00;99.90
43089;DHT22;28709;52.030;5.652;2023-03-01T02:41:54;-2.00;99.90
43089;DHT22;28709;52.030;5.652;2023-03-01T02:44:22;-2.00;99.90
43089;DHT22;28709;52.030;5.652;2023-03-01T02:46:53;-2.00;99.90
43089;DHT22;28709;52.030;5.652;2023-03-01T02:49:25;-2.00;99.90
43089;DHT22;28709;52.030;5.652;2023-03-01T02:57:10;-2.00;99.90
43089;DHT22;28709;52.030;5.652;2023-03-01T02:59:37;-2.00;99.90
43089;DHT22;28709;52.030;5.652;2023-03-01T03:02:19;-2.00;99.90
43089;DHT22;28709;52.030;5.652;2023-03-01T03:04:46;-2.00;99.90
43089;DHT22;28709;52.030;5.652;2023-03-01T03:07:12;-2.00;99.90
43089;DHT22;28709;52.030;5.652;2023-03-01T03:09:38;-1.90;99.90
43089;DHT22;28709;52.030;5.652;2023-03-01T03:12:03;-1.90;99.90
43089;DHT22;28709;52.030;5.652;2023-03-01T03:14:29;-1.90;99.90
43089;DHT22;28709;52.030;5.652;2023-03-01T03:16:55;-1.90;99.90
43089;DHT22;28709;52.030;5.652;2023-03-01T03:19:21;-1.90;99.90
43089;DHT22;28709;52.030;5.652;2023-03-01T03:21:47;-1.90;99.90
43089;DHT22;28709;52.030;5.652;2023-03-01T03:24:12;-1.90;99.90
43089;DHT22;28709;52.030;5.652;2023-03-01T03:26:38;-1.90;99.90
43089;DHT22;28709;52.030;5.652;2023-03-01T03:29:04;-1.80;99.90
43089;DHT22;28709;52.030;5.652;2023-03-01T03:31:29;-1.80;99.90
43089;DHT22;28709;52.030;5.652;2023-03-01T03:33:55;-1.80;99.90
43089;DHT22;28709;52.030;5.652;2023-03-01T03:36:24;-1.80;99.90
43089;DHT22;28709;52.030;5.652;2023-03-01T03:38:50;-1.80;99.90
43089;DHT22;28709;52.030;5.652;2023-03-01T03:41:16;-1.80;99.90
43089;DHT22;28709;52.030;5.652;2023-03-01T03:43:43;-1.80;99.90
43089;DHT22;28709;52.030;5.652;2023-03-01T03:46:10;-1.70;99.90
43089;DHT22;28709;52.030;5.652;2023-03-01T03:48:42;-1.70;99.90
43089;DHT22;28709;52.030;5.652;2023-03-01T03:51:13;-1.70;99.90
43089;DHT22;28709;52.030;5.652;2023-03-01T03:53:39;-1.70;99.90
43089;DHT22;28709;52.030;5.652;2023-03-01T03:56:06;-1.70;99.90
43089;DHT22;28709;52.030;5.652;2023-03-01T03:58:31;-1.70;99.90
43089;DHT22;28709;52.030;5.652;2023-03-01T04:00:58;-1.70;99.90
43089;DHT22;28709;52.030;5.652;2023-03-01T04:03:25;-1.70;99.90
43089;DHT22;28709;52.030;5.652;2023-03-01T04:05:52;-1.70;99.90
43089;DHT22;28709;52.030;5.652;2023-03-01T04:08:19;-1.70;99.90
43089;DHT22;28709;52.030;5.652;2023-03-01T04:10:50;-1.70;99.90
43089;DHT22;28709;52.030;5.652;2023-03-01T04:13:19;-1.80;99.90
43089;DHT22;28709;52.030;5.652;2023-03-01T04:15:46;-1.70;99.90
43089;DHT22;28709;52.030;5.652;2023-03-01T04:18:13;-1.80;99.90
43089;DHT22;28709;52.030;5.652;2023-03-01T04:20:39;-1.70;99.90
43089;DHT22;28709;52.030;5.652;2023-03-01T04:23:11;-1.80;99.90
43089;DHT22;28709;52.030;5.652;2023-03-01T04:25:52;-1.80;99.90
43089;DHT22;28709;52.030;5.652;2023-03-01T04:28:40;-1.90;99.90
43089;DHT22;28709;52.030;5.652;2023-03-01T04:31:17;-1.90;99.90
43089;DHT22;28709;52.030;5.652;2023-03-01T04:33:52;-1.80;99.90
43089;DHT22;28709;52.030;5.652;2023-03-01T04:36:21;-1.80;99.90
43089;DHT22;28709;52.030;5.652;2023-03-01T04:38:47;-1.80;99.90
43089;DHT22;28709;52.030;5.652;2023-03-01T04:41:13;-1.80;99.90
43089;DHT22;28709;52.030;5.652;2023-03-01T04:43:39;-1.80;99.90
43089;DHT22;28709;52.030;5.652;2023-03-01T04:46:07;-1.80;99.90
43089;DHT22;28709;52.030;5.652;2023-03-01T04:48:37;-1.70;99.90
43089;DHT22;28709;52.030;5.652;2023-03-01T04:51:03;-1.70;99.90
43089;DHT22;28709;52.030;5.652;2023-03-01T04:53:29;-1.70;99.90
43089;DHT22;28709;52.030;5.652;2023-03-01T04:55:56;-1.70;99.90
43089;DHT22;28709;52.030;5.652;2023-03-01T04:58:31;-1.70;99.90
43089;DHT22;28709;52.030;5.652;2023-03-01T05:00:57;-1.70;99.90
43089;DHT22;28709;52.030;5.652;2023-03-01T05:03:22;-1.70;99.90
43089;DHT22;28709;52.030;5.652;2023-03-01T05:05:50;-1.60;99.90
43089;DHT22;28709;52.030;5.652;2023-03-01T05:08:17;-1.70;99.90
43089;DHT22;28709;52.030;5.652;2023-03-01T05:10:45;-1.70;99.90
43089;DHT22;28709;52.030;5.652;2023-03-01T05:13:12;-1.70;99.90
43089;DHT22;28709;52.030;5.652;2023-03-01T05:15:39;-1.80;99.90
43089;DHT22;28709;52.030;5.652;2023-03-01T05:18:05;-1.80;99.90
43089;DHT22;28709;52.030;5.652;2023-03-01T05:20:37;-1.80;99.90
43089;DHT22;28709;52.030;5.652;2023-03-01T05:23:03;-1.80;99.90
43089;DHT22;28709;52.030;5.652;2023-03-01T05:25:32;-1.80;99.90
43089;DHT22;28709;52.030;5.652;2023-03-01T05:27:59;-1.80;99.90
43089;DHT22;28709;52.030;5.652;2023-03-01T05:30:33;-1.90;99.90
43089;DHT22;28709;52.030;5.652;2023-03-01T05:32:59;-1.90;99.90
43089;DHT22;28709;52.030;5.652;2023-03-01T05:35:25;-1.90;99.90
43089;DHT22;28709;52.030;5.652;2023-03-01T05:37:52;-1.90;99.90
43089;DHT22;28709;52.030;5.652;2023-03-01T05:40:19;-1.90;99.90
43089;DHT22;28709;52.030;5.652;2023-03-01T05:42:55;-2.00;99.90
43089;DHT22;28709;52.030;5.652;2023-03-01T05:45:23;-2.00;99.90
43089;DHT22;28709;52.030;5.652;2023-03-01T05:47:50;-2.00;99.90
43089;DHT22;28709;52.030;5.652;2023-03-01T05:50:21;-2.00;99.90
43089;DHT22;28709;52.030;5.652;2023-03-01T05:55:22;-2.10;99.90
43089;DHT22;28709;52.030;5.652;2023-03-01T05:57:49;-2.10;99.90
43089;DHT22;28709;52.030;5.652;2023-03-01T06:00:18;-2.10;99.90
43089;DHT22;28709;52.030;5.652;2023-03-01T06:02:44;-2.10;99.90
43089;DHT22;28709;52.030;5.652;2023-03-01T06:05:11;-2.10;99.90
43089;DHT22;28709;52.030;5.652;2023-03-01T06:07:37;-2.20;99.90
43089;DHT22;28709;52.030;5.652;2023-03-01T06:10:04;-2.20;99.90
43089;DHT22;28709;52.030;5.652;2023-03-01T06:12:34;-2.30;99.90
43089;DHT22;28709;52.030;5.652;2023-03-01T06:15:00;-2.30;99.90
43089;DHT22;28709;52.030;5.652;2023-03-01T06:17:29;-2.30;99.90
43089;DHT22;28709;52.030;5.652;2023-03-01T06:19:55;-2.30;99.90
43089;DHT22;28709;52.030;5.652;2023-03-01T06:22:21;-2.30;99.90
43089;DHT22;28709;52.030;5.652;2023-03-01T06:24:47;-2.30;99.90
43089;DHT22;28709;52.030;5.652;2023-03-01T06:27:12;-2.30;99.90
43089;DHT22;28709;52.030;5.652;2023-03-01T06:29:38;-2.20;99.90
43089;DHT22;28709;52.030;5.652;2023-03-01T06:32:04;-2.20;99.90
43089;DHT22;28709;52.030;5.652;2023-03-01T06:34:30;-2.20;99.90
43089;DHT22;28709;52.030;5.652;2023-03-01T06:36:57;-2.20;99.90
43089;DHT22;28709;52.030;5.652;2023-03-01T06:39:23;-2.20;99.90
43089;DHT22;28709;52.030;5.652;2023-03-01T06:41:48;-2.20;99.90
43089;DHT22;28709;52.030;5.652;2023-03-01T06:44:14;-2.20;99.90
43089;DHT22;28709;52.030;5.652;2023-03-01T06:46:40;-2.20;99.90
43089;DHT22;28709;52.030;5.652;2023-03-01T06:49:06;-2.20;99.90
43089;DHT22;28709;52.030;5.652;2023-03-01T06:51:35;-2.20;99.90
43089;DHT22;28709;52.030;5.652;2023-03-01T06:54:03;-2.20;99.90
43089;DHT22;28709;52.030;5.652;2023-03-01T06:56:29;-2.10;99.90
43089;DHT22;28709;52.030;5.652;2023-03-01T06:58:54;-2.10;99.90
43089;DHT22;28709;52.030;5.652;2023-03-01T07:01:20;-2.00;99.90
43089;DHT22;28709;52.030;5.652;2023-03-01T07:03:46;-2.00;99.90
43089;DHT22;28709;52.030;5.652;2023-03-01T07:06:11;-2.00;99.90
43089;DHT22;28709;52.030;5.652;2023-03-01T07:08:37;-1.90;99.90
43089;DHT22;28709;52.030;5.652;2023-03-01T07:11:03;-1.80;99.90
43089;DHT22;28709;52.030;5.652;2023-03-01T07:13:29;-1.90;99.90
43089;DHT22;28709;52.030;5.652;2023-03-01T07:15:55;-1.80;99.90
43089;DHT22;28709;52.030;5.652;2023-03-01T07:18:21;-1.70;99.90
43089;DHT22;28709;52.030;5.652;2023-03-01T07:20:47;-1.40;99.90
43089;DHT22;28709;52.030;5.652;2023-03-01T07:23:13;-1.10;99.90
43089;DHT22;28709;52.030;5.652;2023-03-01T07:25:38;-0.60;99.90
43089;DHT22;28709;52.030;5.652;2023-03-01T07:28:04;-0.20;99.90
43089;DHT22;28709;52.030;5.652;2023-03-01T07:30:30;0.10;99.90
43089;DHT22;28709;52.030;5.652;2023-03-01T07:32:56;0.40;99.90
43089;DHT22;28709;52.030;5.652;2023-03-01T07:35:23;0.70;99.90
43089;DHT22;28709;52.030;5.652;2023-03-01T07:37:50;0.80;99.90
43089;DHT22;28709;52.030;5.652;2023-03-01T07:40:16;0.80;99.90
43089;DHT22;28709;52.030;5.652;2023-03-01T07:42:41;0.80;99.90
43089;DHT22;28709;52.030;5.652;2023-03-01T07:45:07;1.00;99.90
43089;DHT22;28709;52.030;5.652;2023-03-01T07:47:34;1.10;99.90
43089;DHT22;28709;52.030;5.652;2023-03-01T07:50:00;1.40;99.90
43089;DHT22;28709;52.030;5.652;2023-03-01T07:52:26;1.80;99.90
43089;DHT22;28709;52.030;5.652;2023-03-01T07:54:52;2.30;99.90
43089;DHT22;28709;52.030;5.652;2023-03-01T07:57:18;3.00;99.90
43089;DHT22;28709;52.030;5.652;2023-03-01T07:59:44;3.60;99.90
43089;DHT22;28709;52.030;5.652;2023-03-01T08:02:10;4.10;99.90
43089;DHT22;28709;52.030;5.652;2023-03-01T08:04:36;4.80;99.90
43089;DHT22;28709;52.030;5.652;2023-03-01T08:07:04;5.40;99.90
43089;DHT22;28709;52.030;5.652;2023-03-01T08:09:31;6.00;99.90
43089;DHT22;28709;52.030;5.652;2023-03-01T08:11:57;6.60;99.90
43089;DHT22;28709;52.030;5.652;2023-03-01T08:14:26;7.30;99.90
43089;DHT22;28709;52.030;5.652;2023-03-01T08:16:52;7.70;99.90
43089;DHT22;28709;52.030;5.652;2023-03-01T08:19:17;8.10;99.90
43089;DHT22;28709;52.030;5.652;2023-03-01T08:21:43;8.30;99.90
43089;DHT22;28709;52.030;5.652;2023-03-01T08:24:09;8.40;99.90
43089;DHT22;28709;52.030;5.652;2023-03-01T08:26:37;8.70;99.90
43089;DHT22;28709;52.030;5.652;2023-03-01T08:29:03;9.00;99.90
43089;DHT22;28709;52.030;5.652;2023-03-01T08:31:37;9.20;99.10
43089;DHT22;28709;52.030;5.652;2023-03-01T08:34:06;9.40;97.00
43089;DHT22;28709;52.030;5.652;2023-03-01T08:36:35;9.40;96.00
43089;DHT22;28709;52.030;5.652;2023-03-01T08:39:02;9.40;95.60
43089;DHT22;28709;52.030;5.652;2023-03-01T08:41:28;9.40;94.90
43089;DHT22;28709;52.030;5.652;2023-03-01T08:43:54;9.30;94.10
43089;DHT22;28709;52.030;5.652;2023-03-01T08:46:25;9.60;93.80
43089;DHT22;28709;52.030;5.652;2023-03-01T08:48:51;9.40;92.70
43089;DHT22;28709;52.030;5.652;2023-03-01T08:51:18;9.40;92.40
43089;DHT22;28709;52.030;5.652;2023-03-01T08:53:44;9.30;92.10
43089;DHT22;28709;52.030;5.652;2023-03-01T08:56:10;9.20;92.20
43089;DHT22;28709;52.030;5.652;2023-03-01T08:58:36;9.40;91.80
43089;DHT22;28709;52.030;5.652;2023-03-01T09:01:09;9.70;91.20
43089;DHT22;28709;52.030;5.652;2023-03-01T09:03:35;9.80;90.90
43089;DHT22;28709;52.030;5.652;2023-03-01T09:06:02;9.80;90.60
43089;DHT22;28709;52.030;5.652;2023-03-01T09:08:28;9.70;90.20
43089;DHT22;28709;52.030;5.652;2023-03-01T09:10:54;9.70;87.50
43089;DHT22;28709;52.030;5.652;2023-03-01T09:13:20;9.70;88.00
43089;DHT22;28709;52.030;5.652;2023-03-01T09:15:46;9.70;86.70
43089;DHT22;28709;52.030;5.652;2023-03-01T09:18:12;9.80;86.30
43089;DHT22;28709;52.030;5.652;2023-03-01T09:20:37;9.90;86.40
43089;DHT22;28709;52.030;5.652;2023-03-01T09:23:03;9.90;85.40
43089;DHT22;28709;52.030;5.652;2023-03-01T09:25:28;9.80;84.80
43089;DHT22;28709;52.030;5.652;2023-03-01T09:27:55;9.70;85.50
43089;DHT22;28709;52.030;5.652;2023-03-01T09:30:21;9.80;84.70
43089;DHT22;28709;52.030;5.652;2023-03-01T09:32:47;9.50;83.70
43089;DHT22;28709;52.030;5.652;2023-03-01T09:35:13;9.20;84.00
43089;DHT22;28709;52.030;5.652;2023-03-01T09:37:39;9.30;83.70
43089;DHT22;28709;52.030;5.652;2023-03-01T09:40:18;9.20;83.50
43089;DHT22;28709;52.030;5.652;2023-03-01T09:42:53;9.60;84.30
43089;DHT22;28709;52.030;5.652;2023-03-01T09:45:29;10.20;83.60
43089;DHT22;28709;52.030;5.652;2023-03-01T09:47:58;10.70;83.30
43089;DHT22;28709;52.030;5.652;2023-03-01T09:50:26;10.80;82.90
43089;DHT22;28709;52.030;5.652;2023-03-01T09:53:01;11.00;78.80
43089;DHT22;28709;52.030;5.652;2023-03-01T09:55:33;10.70;76.40
43089;DHT22;28709;52.030;5.652;2023-03-01T09:58:29;10.20;75.30
43089;DHT22;28709;52.030;5.652;2023-03-01T10:00:59;9.90;76.20
43089;DHT22;28709;52.030;5.652;2023-03-01T10:03:36;9.90;75.50
43089;DHT22;28709;52.030;5.652;2023-03-01T10:06:21;9.60;76.20
43089;DHT22;28709;52.030;5.652;2023-03-01T10:09:00;9.70;76.50
43089;DHT22;28709;52.030;5.652;2023-03-01T10:11:31;10.20;75.80
43089;DHT22;28709;52.030;5.652;2023-03-01T10:17:19;10.30;72.30
43089;DHT22;28709;52.030;5.652;2023-03-01T10:19:49;10.10;72.10
43089;DHT22;28709;52.030;5.652;2023-03-01T10:22:20;10.00;71.80
43089;DHT22;28709;52.030;5.652;2023-03-01T10:24:51;9.80;71.90
43089;DHT22;28709;52.030;5.652;2023-03-01T10:27:25;10.00;71.20
43089;DHT22;28709;52.030;5.652;2023-03-01T10:32:39;10.30;71.40
43089;DHT22;28709;52.030;5.652;2023-03-01T10:35:23;10.70;71.10
43089;DHT22;28709;52.030;5.652;2023-03-01T10:38:03;11.20;70.90
43089;DHT22;28709;52.030;5.652;2023-03-01T10:40:29;11.20;68.90
43089;DHT22;28709;52.030;5.652;2023-03-01T10:42:57;11.50;67.90
43089;DHT22;28709;52.030;5.652;2023-03-01T10:48:12;11.70;67.20
43089;DHT22;28709;52.030;5.652;2023-03-01T10:50:43;12.10;66.00
43089;DHT22;28709;52.030;5.652;2023-03-01T10:53:32;12.20;66.10
43089;DHT22;28709;52.030;5.652;2023-03-01T10:56:02;12.10;66.00
43089;DHT22;28709;52.030;5.652;2023-03-01T10:58:29;12.00;65.80
43089;DHT22;28709;52.030;5.652;2023-03-01T11:00:56;12.00;66.30
43089;DHT22;28709;52.030;5.652;2023-03-01T11:03:34;12.10;65.40
43089;DHT22;28709;52.030;5.652;2023-03-01T11:06:06;12.20;65.80
43089;DHT22;28709;52.030;5.652;2023-03-01T11:08:47;12.00;64.80
43089;DHT22;28709;52.030;5.652;2023-03-01T11:14:00;12.80;64.70
43089;DHT22;28709;52.030;5.652;2023-03-01T11:16:34;12.70;63.80
43089;DHT22;28709;52.030;5.652;2023-03-01T11:22:03;12.40;62.00
43089;DHT22;28709;52.030;5.652;2023-03-01T11:24:36;11.70;62.20
43089;DHT22;28709;52.030;5.652;2023-03-01T11:27:06;11.20;63.40
43089;DHT22;28709;52.030;5.652;2023-03-01T11:29:40;11.50;63.10
43089;DHT22;28709;52.030;5.652;2023-03-01T11:32:11;11.60;62.30
43089;DHT22;28709;52.030;5.652;2023-03-01T11:35:21;12.10;61.40
43089;DHT22;28709;52.030;5.652;2023-03-01T11:40:34;12.20;61.10
43089;DHT22;28709;52.030;5.652;2023-03-01T11:43:32;11.90;61.10
43089;DHT22;28709;52.030;5.652;2023-03-01T11:52:28;12.70;60.10
43089;DHT22;28709;52.030;5.652;2023-03-01T12:09:38;12.20;60.70
43089;DHT22;28709;52.030;5.652;2023-03-01T12:20:37;12.80;58.90
43089;DHT22;28709;52.030;5.652;2023-03-01T12:34:37;12.30;57.90
43089;DHT22;28709;52.030;5.652;2023-03-01T12:42:56;13.10;57.40
43089;DHT22;28709;52.030;5.652;2023-03-01T12:45:40;13.10;58.10
43089;DHT22;28709;52.030;5.652;2023-03-01T12:51:04;13.60;56.70
43089;DHT22;28709;52.030;5.652;2023-03-01T12:53:35;13.20;56.70
43089;DHT22;28709;52.030;5.652;2023-03-01T12:56:06;12.70;57.20
43089;DHT22;28709;52.030;5.652;2023-03-01T13:09:44;13.60;57.00
43089;DHT22;28709;52.030;5.652;2023-03-01T13:17:51;14.60;54.60
43089;DHT22;28709;52.030;5.652;2023-03-01T13:20:25;14.60;54.30
43089;DHT22;28709;52.030;5.652;2023-03-01T13:23:06;14.60;53.80
43089;DHT22;28709;52.030;5.652;2023-03-01T13:25:32;14.50;54.00
43089;DHT22;28709;52.030;5.652;2023-03-01T13:31:04;14.70;53.40
43089;DHT22;28709;52.030;5.652;2023-03-01T13:36:00;14.30;53.80
43089;DHT22;28709;52.030;5.652;2023-03-01T13:38:45;14.00;54.10
43089;DHT22;28709;52.030;5.652;2023-03-01T13:41:48;13.60;54.50
43089;DHT22;28709;52.030;5.652;2023-03-01T13:47:05;13.40;54.70
43089;DHT22;28709;52.030;5.652;2023-03-01T13:50:03;13.70;54.00
43089;DHT22;28709;52.030;5.652;2023-03-01T13:54:55;13.80;53.70
43089;DHT22;28709;52.030;5.652;2023-03-01T13:57:26;13.50;54.30
43089;DHT22;28709;52.030;5.652;2023-03-01T13:59:54;13.10;54.90
43089;DHT22;28709;52.030;5.652;2023-03-01T14:02:20;12.20;55.40
43089;DHT22;28709;52.030;5.652;2023-03-01T14:04:56;11.20;57.10
43089;DHT22;28709;52.030;5.652;2023-03-01T14:07:24;10.20;58.20
43089;DHT22;28709;52.030;5.652;2023-03-01T14:09:55;9.60;59.10
43089;DHT22;28709;52.030;5.652;2023-03-01T14:15:19;8.90;60.70
43089;DHT22;28709;52.030;5.652;2023-03-01T14:20:46;8.60;61.60
43089;DHT22;28709;52.030;5.652;2023-03-01T14:23:25;8.60;61.30
43089;DHT22;28709;52.030;5.652;2023-03-01T14:25:57;8.50;61.10
43089;DHT22;28709;52.030;5.652;2023-03-01T14:28:28;8.40;61.10
43089;DHT22;28709;52.030;5.652;2023-03-01T14:30:56;8.30;61.60
43089;DHT22;28709;52.030;5.652;2023-03-01T14:33:28;8.20;61.90
43089;DHT22;28709;52.030;5.652;2023-03-01T14:36:08;8.30;62.20
43089;DHT22;28709;52.030;5.652;2023-03-01T14:38:40;8.10;62.70
43089;DHT22;28709;52.030;5.652;2023-03-01T14:41:21;8.00;62.80
43089;DHT22;28709;52.030;5.652;2023-03-01T14:44:24;7.90;62.30
43089;DHT22;28709;52.030;5.652;2023-03-01T14:46:44;7.90;62.20
43089;DHT22;28709;52.030;5.652;2023-03-01T14:49:14;7.90;62.80
43089;DHT22;28709;52.030;5.652;2023-03-01T14:51:43;7.90;62.30
43089;DHT22;28709;52.030;5.652;2023-03-01T14:54:21;7.90;62.50
43089;DHT22;28709;52.030;5.652;2023-03-01T14:56:48;7.90;62.70
43089;DHT22;28709;52.030;5.652;2023-03-01T14:59:15;7.90;62.60
43089;DHT22;28709;52.030;5.652;2023-03-01T15:01:44;7.90;62.40
43089;DHT22;28709;52.030;5.652;2023-03-01T15:04:13;7.90;61.80
43089;DHT22;28709;52.030;5.652;2023-03-01T15:06:40;7.90;62.20
43089;DHT22;28709;52.030;5.652;2023-03-01T15:09:10;7.80;62.70
43089;DHT22;28709;52.030;5.652;2023-03-01T15:11:37;7.80;63.20
43089;DHT22;28709;52.030;5.652;2023-03-01T15:14:41;7.70;63.40
43089;DHT22;28709;52.030;5.652;2023-03-01T15:17:36;7.70;64.20
43089;DHT22;28709;52.030;5.652;2023-03-01T15:20:05;7.70;64.10
43089;DHT22;28709;52.030;5.652;2023-03-01T15:22:32;7.70;63.90
43089;DHT22;28709;52.030;5.652;2023-03-01T15:24:57;7.60;63.60
43089;DHT22;28709;52.030;5.652;2023-03-01T15:27:25;7.60;63.50
43089;DHT22;28709;52.030;5.652;2023-03-01T15:29:59;7.70;63.70
43089;DHT22;28709;52.030;5.652;2023-03-01T15:32:29;7.60;63.70
43089;DHT22;28709;52.030;5.652;2023-03-01T15:34:56;7.60;63.70
43089;DHT22;28709;52.030;5.652;2023-03-01T15:37:45;7.60;63.70
43089;DHT22;28709;52.030;5.652;2023-03-01T15:40:29;7.60;63.80
43089;DHT22;28709;52.030;5.652;2023-03-01T15:43:02;7.60;63.80
43089;DHT22;28709;52.030;5.652;2023-03-01T15:45:30;7.50;64.00
43089;DHT22;28709;52.030;5.652;2023-03-01T15:50:41;7.40;64.40
43089;DHT22;28709;52.030;5.652;2023-03-01T15:53:13;7.40;64.80
43089;DHT22;28709;52.030;5.652;2023-03-01T15:55:40;7.40;65.00
43089;DHT22;28709;52.030;5.652;2023-03-01T15:58:10;7.40;65.10
43089;DHT22;28709;52.030;5.652;2023-03-01T16:00:38;7.30;65.00
43089;DHT22;28709;52.030;5.652;2023-03-01T16:03:04;7.30;65.00
43089;DHT22;28709;52.030;5.652;2023-03-01T16:05:33;7.30;65.20
43089;DHT22;28709;52.030;5.652;2023-03-01T16:08:00;7.30;65.40
43089;DHT22;28709;52.030;5.652;2023-03-01T16:10:26;7.30;65.60
43089;DHT22;28709;52.030;5.652;2023-03-01T16:12:53;7.20;65.90
43089;DHT22;28709;52.030;5.652;2023-03-01T16:15:28;7.20;66.00
43089;DHT22;28709;52.030;5.652;2023-03-01T16:17:54;7.20;66.20
43089;DHT22;28709;52.030;5.652;2023-03-01T16:20:20;7.20;66.60
43089;DHT22;28709;52.030;5.652;2023-03-01T16:22:46;7.20;66.80
43089;DHT22;28709;52.030;5.652;2023-03-01T16:25:17;7.10;67.00
43089;DHT22;28709;52.030;5.652;2023-03-01T16:27:48;7.10;67.00
43089;DHT22;28709;52.030;5.652;2023-03-01T16:30:15;7.10;67.60
43089;DHT22;28709;52.030;5.652;2023-03-01T16:32:43;7.10;67.10
43089;DHT22;28709;52.030;5.652;2023-03-01T16:35:11;7.10;67.20
43089;DHT22;28709;52.030;5.652;2023-03-01T16:37:38;7.00;67.40
43089;DHT22;28709;52.030;5.652;2023-03-01T16:40:09;7.00;67.60
43089;DHT22;28709;52.030;5.652;2023-03-01T16:42:41;7.00;67.70
43089;DHT22;28709;52.030;5.652;2023-03-01T16:45:08;7.00;67.70
43089;DHT22;28709;52.030;5.652;2023-03-01T16:47:34;6.90;68.00
43089;DHT22;28709;52.030;5.652;2023-03-01T16:49:59;6.90;68.40
43089;DHT22;28709;52.030;5.652;2023-03-01T16:52:25;6.80;68.60
43089;DHT22;28709;52.030;5.652;2023-03-01T16:54:51;6.70;69.00
43089;DHT22;28709;52.030;5.652;2023-03-01T16:57:17;6.70;69.80
43089;DHT22;28709;52.030;5.652;2023-03-01T16:59:42;6.60;70.00
43089;DHT22;28709;52.030;5.652;2023-03-01T17:02:14;6.50;70.30
43089;DHT22;28709;52.030;5.652;2023-03-01T17:04:50;6.50;70.50
43089;DHT22;28709;52.030;5.652;2023-03-01T17:07:16;6.40;70.80
43089;DHT22;28709;52.030;5.652;2023-03-01T17:09:42;6.40;71.70
43089;DHT22;28709;52.030;5.652;2023-03-01T17:12:07;6.30;72.10
43089;DHT22;28709;52.030;5.652;2023-03-01T17:14:34;6.20;72.30
43089;DHT22;28709;52.030;5.652;2023-03-01T17:16:59;6.10;72.50
43089;DHT22;28709;52.030;5.652;2023-03-01T17:19:26;6.00;72.60
43089;DHT22;28709;52.030;5.652;2023-03-01T17:21:52;5.90;73.00
43089;DHT22;28709;52.030;5.652;2023-03-01T17:24:18;5.90;73.10
43089;DHT22;28709;52.030;5.652;2023-03-01T17:26:44;5.80;73.40
43089;DHT22;28709;52.030;5.652;2023-03-01T17:29:10;5.70;73.50
43089;DHT22;28709;52.030;5.652;2023-03-01T17:31:37;5.60;73.70
43089;DHT22;28709;52.030;5.652;2023-03-01T17:34:03;5.60;74.30
43089;DHT22;28709;52.030;5.652;2023-03-01T17:36:28;5.50;74.20
43089;DHT22;28709;52.030;5.652;2023-03-01T17:38:54;5.40;74.70
43089;DHT22;28709;52.030;5.652;2023-03-01T17:41:20;5.40;74.60
43089;DHT22;28709;52.030;5.652;2023-03-01T17:43:48;5.30;74.70
43089;DHT22;28709;52.030;5.652;2023-03-01T17:46:13;5.20;75.30